ロンドン/ヒースロー の空港の天気 - METARとTAF

ロンドン・ヒースロー空港 ( EGLL / LHR ) - イギリス ロンドン
飛行場実況気象(Metar)
観測時間02/27 22:20 GMT (02/27 22:20 UTC)
風向・風速南西 5m/s
視程10km以上
天気現象
全天の4割程度の雲 雲底高度 730m
気温4℃
湿度87%
気圧985hPa
METAREGLL 272220Z AUTO 22010KT 9999 SCT024 04/02 Q0985 NOSIG
過去の天気等 Google飛行場航空写真 Wunderground天気予報

過去48時間のMETAR

飛行場予報(TAF)
発表時間: 2/27 19:26 GMT (2/27 19:26 UTC)
予報対象時間: 27日19時 GMT ~ 1日0時 GMT
風向・風速南西 6m/s
視程10km以上
全天の4割程度の雲 雲底高度 760m
27日19時 GMT ~ 27日22時 GMT に一時的に
視程6,000m
天気現象しゅう雨
27日19時 GMT ~ 27日20時 GMT に 確率 40% で一時的に
風向・風速南西 9m/s 瞬間風速 15m/s
視程3,500m
天気現象雷雨 強いしゅう雨あられ
全天の8割程度の積乱雲 雲底高度 430m
27日22時 GMT ~ 28日8時 GMT に 確率 30% で一時的に
視程6,000m
天気現象しゅう雨
全天の8割程度の雲 雲底高度 370m
28日9時 GMT ~ 28日12時 GMT に徐々に
風向・風速西 7m/s
28日14時 GMT ~ 28日20時 GMT に 確率 30% で一時的に
風向・風速西 8m/s 瞬間風速 14m/s
視程4,000m
天気現象強いしゅう雨
全天の8割程度の雲 雲底高度 430m
TAF AMD EGLL 271926Z 2719/2824 22012KT 9999 SCT025
TEMPO 2719/2722 6000 SHRA
PROB40 TEMPO 2719/2720 23018G30KT 3500 TSRA +SHRAGS BKN014CB
PROB30 TEMPO 2722/2808 6000 SHRA BKN012
BECMG 2809/2812 28013KT
PROB30 TEMPO 2814/2820 26016G28KT 4000 +SHRA BKN014